Time;durP1;ratioP1;P1;durP2;ratioP2;P2;SDS_P1;SDS_P2;PMS_P1;PMS_P2;Temp;Humidity;BMP_temperature;BMP_pressure;BME280_temperature;BME280_humidity;BME280_pressure;Samples;Min_cycle;Max_cycle;Signal;HPM_P1;HPM_P2
2021/11/15 00:00:10;;;;;;;4.70;3.67;;;;;;;;;;5051378;28;20048;-57
2021/11/15 00:02:37;;;;;;;5.15;3.70;;;;;;;;;;5050748;28;21393;-57
2021/11/15 00:05:03;;;;;;;4.15;3.28;;;;;;;;;;5047322;28;20032;-58
2021/11/15 00:07:29;;;;;;;4.50;3.63;;;;;;;;;;5052346;28;20128;-57
2021/11/15 00:09:55;;;;;;;4.25;2.80;;;;;;;;;;5050842;28;20047;-57
2021/11/15 00:12:21;;;;;;;4.38;3.00;;;;;;;;;;5050804;28;20072;-56
2021/11/15 00:14:47;;;;;;;3.58;2.60;;;;;;;;;;5050633;28;20048;-56
2021/11/15 00:17:13;;;;;;;5.35;3.15;;;;;;;;;;5051122;28;20031;-62
2021/11/15 00:19:39;;;;;;;4.25;2.90;;;;;;;;;;5051317;28;20389;-58
2021/11/15 00:22:05;;;;;;;4.60;3.10;;;;;;;;;;5049864;28;20097;-57
2021/11/15 00:24:31;;;;;;;4.43;3.55;;;;;;;;;;5050253;28;20127;-60
2021/11/15 00:26:57;;;;;;;4.22;2.97;;;;;;;;;;5050075;28;20059;-56
2021/11/15 00:29:23;;;;;;;4.65;3.10;;;;;;;;;;5050087;28;20431;-58
2021/11/15 00:31:49;;;;;;;4.60;3.13;;;;;;;;;;5050105;28;20028;-64
2021/11/15 00:34:15;;;;;;;4.80;3.42;;;;;;;;;;5051788;28;20055;-56
2021/11/15 00:36:41;;;;;;;5.10;3.42;;;;;;;;;;5057038;28;20049;-60
2021/11/15 00:39:08;;;;;;;4.63;3.03;;;;;;;;;;5053542;28;20132;-56
2021/11/15 00:41:34;;;;;;;4.90;3.22;;;;;;;;;;5056665;28;20037;-58
2021/11/15 00:44:00;;;;;;;4.32;3.35;;;;;;;;;;5054564;28;20048;-56
2021/11/15 00:46:26;;;;;;;3.80;2.95;;;;;;;;;;5055981;28;20032;-56
2021/11/15 00:48:58;;;;;;;4.60;3.00;;;;;;;;;;5052312;28;20098;-64
2021/11/15 00:51:24;;;;;;;4.35;3.55;;;;;;;;;;5054704;28;20135;-56
2021/11/15 00:53:50;;;;;;;5.47;3.55;;;;;;;;;;5053557;28;20112;-64
2021/11/15 00:56:16;;;;;;;5.45;3.15;;;;;;;;;;5055310;28;20018;-56
2021/11/15 00:58:43;;;;;;;4.00;2.95;;;;;;;;;;5053755;28;20025;-58
2021/11/15 01:01:09;;;;;;;5.05;3.75;;;;;;;;;;5056470;28;20176;-58
2021/11/15 01:03:35;;;;;;;5.28;3.38;;;;;;;;;;5053988;28;20449;-58
2021/11/15 01:06:01;;;;;;;5.15;3.10;;;;;;;;;;5054331;28;20036;-59
2021/11/15 01:08:27;;;;;;;4.68;3.33;;;;;;;;;;5053602;28;20470;-58
2021/11/15 01:10:53;;;;;;;4.47;2.97;;;;;;;;;;5055123;28;20040;-57
2021/11/15 01:13:20;;;;;;;5.13;3.00;;;;;;;;;;5053554;28;20029;-56
2021/11/15 01:15:47;;;;;;;4.10;3.10;;;;;;;;;;5054328;28;20029;-56
2021/11/15 01:18:13;;;;;;;5.60;4.13;;;;;;;;;;5055188;28;20041;-58
2021/11/15 01:20:40;;;;;;;4.32;2.95;;;;;;;;;;5052279;28;20386;-57
2021/11/15 01:23:06;;;;;;;4.18;3.47;;;;;;;;;;5052179;28;20017;-58
2021/11/15 01:25:32;;;;;;;4.53;3.38;;;;;;;;;;5052791;28;20087;-59
2021/11/15 01:27:59;;;;;;;4.38;3.22;;;;;;;;;;5052265;28;20033;-59
2021/11/15 01:30:25;;;;;;;4.53;3.33;;;;;;;;;;5052626;28;20517;-55
2021/11/15 01:32:52;;;;;;;3.72;2.63;;;;;;;;;;5052182;28;20025;-63
2021/11/15 01:35:18;;;;;;;4.15;3.10;;;;;;;;;;5059753;28;20485;-56
2021/11/15 01:37:44;;;;;;;4.10;2.92;;;;;;;;;;5074308;28;20428;-57
2021/11/15 01:40:12;;;;;;;3.95;3.20;;;;;;;;;;5073259;28;20179;-57
2021/11/15 01:42:39;;;;;;;3.63;2.97;;;;;;;;;;5074643;28;20024;-57
2021/11/15 01:45:05;;;;;;;3.67;2.88;;;;;;;;;;5073234;28;20033;-57
2021/11/15 01:47:32;;;;;;;3.83;2.85;;;;;;;;;;5074496;28;20024;-56
2021/11/15 01:49:58;;;;;;;4.95;3.13;;;;;;;;;;5072872;28;20027;-56
2021/11/15 01:52:24;;;;;;;4.70;3.03;;;;;;;;;;5074450;28;20099;-55
2021/11/15 01:54:52;;;;;;;4.20;2.83;;;;;;;;;;5073620;28;20044;-64
2021/11/15 01:57:19;;;;;;;4.65;3.20;;;;;;;;;;5074099;28;20115;-56
2021/11/15 01:59:48;;;;;;;4.28;3.10;;;;;;;;;;5073921;28;20059;-57
2021/11/15 02:02:14;;;;;;;4.55;2.90;;;;;;;;;;5073613;28;20025;-57
2021/11/15 02:04:40;;;;;;;4.10;3.05;;;;;;;;;;5074070;28;20354;-57
2021/11/15 02:07:07;;;;;;;4.20;3.00;;;;;;;;;;5073034;28;20033;-58
2021/11/15 02:09:33;;;;;;;4.57;3.28;;;;;;;;;;5073684;28;20468;-57
2021/11/15 02:12:00;;;;;;;3.97;3.28;;;;;;;;;;5073104;28;20382;-56
2021/11/15 02:14:26;;;;;;;3.67;2.85;;;;;;;;;;5073807;28;20024;-56
2021/11/15 02:16:53;;;;;;;3.75;2.58;;;;;;;;;;5068471;28;20025;-63
2021/11/15 02:19:19;;;;;;;3.97;3.10;;;;;;;;;;5053698;28;20036;-56
2021/11/15 02:21:45;;;;;;;4.55;3.08;;;;;;;;;;5085695;28;20430;-56
2021/11/15 02:24:11;;;;;;;3.80;3.05;;;;;;;;;;5071561;28;20113;-55
2021/11/15 02:26:38;;;;;;;4.50;3.30;;;;;;;;;;5073655;28;20032;-57
2021/11/15 02:29:04;;;;;;;4.45;3.17;;;;;;;;;;5072904;28;20048;-57
2021/11/15 02:31:30;;;;;;;3.83;2.78;;;;;;;;;;5073226;28;20028;-58
2021/11/15 02:33:57;;;;;;;3.70;2.55;;;;;;;;;;5071805;28;20111;-58
2021/11/15 02:36:25;;;;;;;3.90;2.80;;;;;;;;;;5073105;28;20029;-57
2021/11/15 02:38:52;;;;;;;4.47;2.80;;;;;;;;;;5073040;28;20025;-64
2021/11/15 02:41:19;;;;;;;4.15;2.97;;;;;;;;;;5073388;28;20115;-56
2021/11/15 02:43:45;;;;;;;4.82;3.50;;;;;;;;;;5073091;28;20025;-54
2021/11/15 02:46:11;;;;;;;4.10;2.60;;;;;;;;;;5071319;28;20472;-56
2021/11/15 02:48:38;;;;;;;4.43;2.85;;;;;;;;;;5073386;28;20369;-56
2021/11/15 02:51:04;;;;;;;3.70;2.67;;;;;;;;;;5072250;28;20110;-56
2021/11/15 02:53:30;;;;;;;4.47;3.33;;;;;;;;;;5072705;28;20492;-57
2021/11/15 02:55:57;;;;;;;3.33;2.67;;;;;;;;;;5071756;28;20024;-56
2021/11/15 02:58:23;;;;;;;3.58;2.60;;;;;;;;;;5072859;28;20062;-57
2021/11/15 03:00:56;;;;;;;3.40;2.88;;;;;;;;;;5073078;28;20029;-56
2021/11/15 03:03:22;;;;;;;4.18;2.88;;;;;;;;;;5072571;28;20025;-56
2021/11/15 03:05:50;;;;;;;3.08;2.42;;;;;;;;;;5072405;28;20047;-57
2021/11/15 03:08:16;;;;;;;3.75;2.65;;;;;;;;;;5072167;28;20046;-56
2021/11/15 03:10:43;;;;;;;4.03;2.53;;;;;;;;;;5072933;28;20059;-56
2021/11/15 03:13:11;;;;;;;3.92;2.72;;;;;;;;;;5071745;28;20024;-57
2021/11/15 03:15:38;;;;;;;3.75;2.88;;;;;;;;;;5072707;28;20043;-57
2021/11/15 03:18:06;;;;;;;4.35;2.90;;;;;;;;;;5071941;28;20115;-56
2021/11/15 03:20:34;;;;;;;4.85;3.33;;;;;;;;;;5072227;28;20470;-59
2021/11/15 03:23:00;;;;;;;4.60;3.13;;;;;;;;;;5065157;28;20028;-57
2021/11/15 03:25:27;;;;;;;3.60;2.72;;;;;;;;;;5072654;28;20078;-57
2021/11/15 03:27:53;;;;;;;3.47;2.95;;;;;;;;;;5072055;28;20107;-64
2021/11/15 03:30:20;;;;;;;3.83;3.05;;;;;;;;;;5072381;28;20028;-56
2021/11/15 03:32:47;;;;;;;3.50;2.38;;;;;;;;;;5071584;28;20024;-57
2021/11/15 03:35:14;;;;;;;4.38;3.25;;;;;;;;;;5071306;28;20074;-58
2021/11/15 03:37:41;;;;;;;4.30;2.90;;;;;;;;;;5071963;28;20390;-57
2021/11/15 03:40:13;;;;;;;9.75;4.03;;;;;;;;;;5071491;28;20032;-57
2021/11/15 03:42:39;;;;;;;4.22;3.28;;;;;;;;;;5072132;28;20032;-56
2021/11/15 03:45:06;;;;;;;3.90;2.85;;;;;;;;;;5071506;28;20369;-57
2021/11/15 03:47:32;;;;;;;5.10;3.22;;;;;;;;;;5071974;28;20059;-58
2021/11/15 03:49:58;;;;;;;4.53;3.22;;;;;;;;;;5071429;28;20063;-57
2021/11/15 03:52:24;;;;;;;6.40;3.55;;;;;;;;;;5071715;28;20107;-57
2021/11/15 03:54:51;;;;;;;4.32;3.35;;;;;;;;;;5071990;28;20029;-56
2021/11/15 03:57:17;;;;;;;4.65;3.30;;;;;;;;;;5070961;28;20025;-58
2021/11/15 03:59:43;;;;;;;4.32;2.95;;;;;;;;;;5071570;28;20481;-54
2021/11/15 04:02:10;;;;;;;5.03;3.60;;;;;;;;;;5070931;28;20021;-57
2021/11/15 04:04:53;;;;;;;4.50;3.20;;;;;;;;;;5072210;28;20465;-55
2021/11/15 04:07:34;;;;;;;4.72;3.30;;;;;;;;;;5070771;28;20025;-58
2021/11/15 04:10:02;;;;;;;4.18;2.95;;;;;;;;;;5071218;28;20055;-56
2021/11/15 04:12:29;;;;;;;4.40;3.33;;;;;;;;;;5071741;28;20473;-57
2021/11/15 04:14:57;;;;;;;3.40;2.85;;;;;;;;;;5071346;28;20035;-64
2021/11/15 04:17:24;;;;;;;3.95;3.05;;;;;;;;;;5071739;28;20056;-57
2021/11/15 04:19:51;;;;;;;3.47;2.92;;;;;;;;;;5071933;28;20439;-57
2021/11/15 04:22:17;;;;;;;3.53;2.70;;;;;;;;;;5062306;28;20021;-57
2021/11/15 04:24:43;;;;;;;3.88;3.47;;;;;;;;;;5053556;28;20029;-56
2021/11/15 04:27:10;;;;;;;3.25;2.60;;;;;;;;;;5070553;28;20028;-56
2021/11/15 04:29:36;;;;;;;3.97;3.03;;;;;;;;;;5071600;28;20032;-55
2021/11/15 04:32:05;;;;;;;3.40;3.10;;;;;;;;;;5070945;28;20382;-57
2021/11/15 04:34:31;;;;;;;4.63;2.88;;;;;;;;;;5071397;28;20123;-55
2021/11/15 04:36:57;;;;;;;3.95;3.00;;;;;;;;;;5070888;28;20029;-65
2021/11/15 04:39:23;;;;;;;4.05;2.78;;;;;;;;;;5071289;28;20037;-56
2021/11/15 04:41:49;;;;;;;3.97;2.78;;;;;;;;;;5071263;28;20033;-55
2021/11/15 04:44:15;;;;;;;3.85;2.80;;;;;;;;;;5070766;28;20187;-56
2021/11/15 04:46:41;;;;;;;4.20;2.78;;;;;;;;;;5071638;28;20112;-54
2021/11/15 04:49:07;;;;;;;3.75;2.58;;;;;;;;;;5070590;28;20044;-56
2021/11/15 04:51:34;;;;;;;4.53;3.80;;;;;;;;;;5071725;28;20118;-56
2021/11/15 04:54:00;;;;;;;4.30;2.92;;;;;;;;;;5070716;28;20029;-59
2021/11/15 04:56:26;;;;;;;3.78;3.08;;;;;;;;;;5071301;28;20063;-56
2021/11/15 04:58:53;;;;;;;4.70;2.75;;;;;;;;;;5071458;28;20024;-55
2021/11/15 05:01:19;;;;;;;3.60;2.80;;;;;;;;;;5070511;28;20101;-58
2021/11/15 05:03:45;;;;;;;3.83;2.70;;;;;;;;;;5071216;28;20040;-57
2021/11/15 05:06:11;;;;;;;3.42;2.58;;;;;;;;;;5070757;28;20025;-56
2021/11/15 05:08:37;;;;;;;4.70;3.17;;;;;;;;;;5071271;28;20036;-55
2021/11/15 05:11:04;;;;;;;3.58;2.83;;;;;;;;;;5070114;28;20035;-59
2021/11/15 05:13:30;;;;;;;3.45;2.42;;;;;;;;;;5071017;28;20029;-57
2021/11/15 05:16:03;;;;;;;3.33;2.92;;;;;;;;;;5070822;28;20495;-65
2021/11/15 05:18:29;;;;;;;3.20;2.42;;;;;;;;;;5071466;28;20056;-57
2021/11/15 05:20:55;;;;;;;3.42;2.55;;;;;;;;;;5074115;28;20060;-57
2021/11/15 05:23:21;;;;;;;3.08;2.40;;;;;;;;;;5062878;28;20094;-64
2021/11/15 05:25:47;;;;;;;3.72;2.60;;;;;;;;;;5074970;28;20469;-56
2021/11/15 05:28:13;;;;;;;3.30;2.83;;;;;;;;;;5073711;28;20028;-56
2021/11/15 05:30:39;;;;;;;4.55;2.60;;;;;;;;;;5074771;28;20064;-55
2021/11/15 05:33:06;;;;;;;3.50;2.33;;;;;;;;;;5073399;28;20028;-58
2021/11/15 05:35:32;;;;;;;3.15;2.50;;;;;;;;;;5074289;28;20045;-57
2021/11/15 05:38:00;;;;;;;3.67;2.80;;;;;;;;;;5074117;28;20056;-64
2021/11/15 05:40:27;;;;;;;3.65;3.03;;;;;;;;;;5074537;28;20047;-56
2021/11/15 05:42:54;;;;;;;4.95;3.13;;;;;;;;;;5074829;28;20024;-53
2021/11/15 05:45:22;;;;;;;3.40;2.30;;;;;;;;;;5073712;28;20029;-57
2021/11/15 05:47:48;;;;;;;3.67;2.60;;;;;;;;;;5074425;28;20029;-53
2021/11/15 05:50:15;;;;;;;3.55;2.40;;;;;;;;;;5074059;28;20470;-56
2021/11/15 05:52:43;;;;;;;3.47;2.40;;;;;;;;;;5074465;28;20139;-55
2021/11/15 05:55:10;;;;;;;4.30;2.92;;;;;;;;;;5073483;28;20102;-57
2021/11/15 05:57:36;;;;;;;3.67;2.70;;;;;;;;;;5073982;28;20028;-55
2021/11/15 06:00:04;;;;;;;4.20;3.08;;;;;;;;;;5073522;28;20049;-58
2021/11/15 06:02:30;;;;;;;4.57;3.08;;;;;;;;;;5074597;28;20025;-56
2021/11/15 06:04:56;;;;;;;4.55;3.15;;;;;;;;;;5073791;28;20470;-56
2021/11/15 06:07:22;;;;;;;3.25;2.55;;;;;;;;;;5061006;28;20041;-60
2021/11/15 06:09:48;;;;;;;4.20;2.80;;;;;;;;;;5052321;28;20525;-57
2021/11/15 06:12:14;;;;;;;4.35;3.15;;;;;;;;;;5052813;28;20029;-59
2021/11/15 06:14:40;;;;;;;3.83;2.60;;;;;;;;;;5053632;28;20458;-57
2021/11/15 06:17:06;;;;;;;3.53;3.00;;;;;;;;;;5053408;28;20021;-55
2021/11/15 06:19:32;;;;;;;4.68;3.33;;;;;;;;;;5053673;28;20028;-56
2021/11/15 06:22:01;;;;;;;3.47;2.88;;;;;;;;;;5053629;28;20063;-63
2021/11/15 06:24:27;;;;;;;5.43;3.30;;;;;;;;;;5054425;28;20025;-55
2021/11/15 06:26:53;;;;;;;3.92;2.35;;;;;;;;;;5053872;28;20123;-55
2021/11/15 06:29:19;;;;;;;4.70;2.88;;;;;;;;;;5053044;28;20664;-56
2021/11/15 06:31:45;;;;;;;4.30;2.90;;;;;;;;;;5052802;28;20024;-56
2021/11/15 06:34:11;;;;;;;4.10;2.92;;;;;;;;;;5052520;28;20083;-57
2021/11/15 06:36:37;;;;;;;4.32;3.40;;;;;;;;;;5053738;28;20029;-57
2021/11/15 06:39:03;;;;;;;3.95;2.97;;;;;;;;;;5052792;28;20466;-52
2021/11/15 06:41:29;;;;;;;3.88;2.97;;;;;;;;;;5053389;28;20085;-58
2021/11/15 06:43:56;;;;;;;5.60;3.53;;;;;;;;;;5053439;28;20528;-54
2021/11/15 06:46:23;;;;;;;4.03;2.60;;;;;;;;;;5052621;28;20031;-60
2021/11/15 06:48:49;;;;;;;4.70;2.90;;;;;;;;;;5053184;28;20025;-57
2021/11/15 06:51:15;;;;;;;5.45;3.42;;;;;;;;;;5052653;28;20025;-56
2021/11/15 06:53:42;;;;;;;3.92;2.70;;;;;;;;;;5053045;28;20092;-61
2021/11/15 06:56:09;;;;;;;4.57;2.88;;;;;;;;;;5052643;28;20036;-49
2021/11/15 06:58:35;;;;;;;3.95;2.40;;;;;;;;;;5053539;28;20036;-56
2021/11/15 07:01:01;;;;;;;7.78;3.03;;;;;;;;;;5052904;28;20027;-57
2021/11/15 07:03:27;;;;;;;5.20;2.97;;;;;;;;;;5053285;28;20021;-62
2021/11/15 07:05:54;;;;;;;5.90;2.92;;;;;;;;;;5053469;28;20035;-59
2021/11/15 07:08:20;;;;;;;6.90;3.85;;;;;;;;;;5052848;28;20116;-58
2021/11/15 07:10:46;;;;;;;7.22;3.40;;;;;;;;;;5053506;28;20032;-56
2021/11/15 07:13:13;;;;;;;9.57;3.30;;;;;;;;;;5052839;28;20017;-57
2021/11/15 07:15:39;;;;;;;7.60;3.63;;;;;;;;;;5052883;28;20362;-58
2021/11/15 07:18:05;;;;;;;7.65;2.95;;;;;;;;;;5052243;28;20037;-59
2021/11/15 07:20:32;;;;;;;9.38;2.90;;;;;;;;;;5053143;28;20032;-58
2021/11/15 07:22:58;;;;;;;8.52;3.33;;;;;;;;;;5053039;28;20025;-59
2021/11/15 07:25:24;;;;;;;4.60;2.58;;;;;;;;;;5060676;28;20020;-59
2021/11/15 07:27:51;;;;;;;7.15;2.50;;;;;;;;;;5073162;28;20389;-59
2021/11/15 07:30:18;;;;;;;10.27;3.60;;;;;;;;;;5072560;28;20028;-58
2021/11/15 07:32:44;;;;;;;7.88;3.95;;;;;;;;;;5072567;28;20032;-59
2021/11/15 07:35:10;;;;;;;7.07;3.65;;;;;;;;;;5071984;28;20056;-58
2021/11/15 07:37:37;;;;;;;6.03;3.13;;;;;;;;;;5072481;28;20029;-59
2021/11/15 07:40:04;;;;;;;6.63;3.22;;;;;;;;;;5071994;28;20029;-60
2021/11/15 07:42:31;;;;;;;9.23;3.30;;;;;;;;;;5071706;28;20061;-59
2021/11/15 07:44:57;;;;;;;11.32;3.35;;;;;;;;;;5072591;28;20094;-58
2021/11/15 07:47:24;;;;;;;11.75;3.60;;;;;;;;;;5072158;28;20027;-58
2021/11/15 07:49:50;;;;;;;5.32;3.10;;;;;;;;;;5072490;28;20052;-59
2021/11/15 07:52:17;;;;;;;6.43;2.90;;;;;;;;;;5075572;28;20439;-56
2021/11/15 07:54:43;;;;;;;18.67;2.92;;;;;;;;;;5107354;28;20385;-58
2021/11/15 07:57:09;;;;;;;7.90;3.20;;;;;;;;;;5057266;28;20078;-59
2021/11/15 07:59:36;;;;;;;5.70;2.92;;;;;;;;;;5034046;28;20029;-60
2021/11/15 08:02:10;;;;;;;6.72;2.97;;;;;;;;;;5038276;28;20371;-65
2021/11/15 08:04:36;;;;;;;8.55;3.70;;;;;;;;;;5033996;28;20028;-60
2021/11/15 08:07:08;;;;;;;5.00;3.25;;;;;;;;;;5031894;28;20041;-66
2021/11/15 08:09:34;;;;;;;7.47;3.55;;;;;;;;;;5032455;28;20115;-59
2021/11/15 08:12:03;;;;;;;19.88;3.97;;;;;;;;;;5032253;28;20105;-58
2021/11/15 08:14:29;;;;;;;7.18;3.35;;;;;;;;;;5032566;28;20458;-58
2021/11/15 08:16:55;;;;;;;4.35;2.97;;;;;;;;;;5032519;28;20025;-58
2021/11/15 08:19:21;;;;;;;6.53;3.35;;;;;;;;;;5031793;28;20341;-58
2021/11/15 08:21:48;;;;;;;8.27;3.13;;;;;;;;;;5036278;28;20473;-59
2021/11/15 08:24:14;;;;;;;6.45;3.22;;;;;;;;;;5051784;28;20021;-58
2021/11/15 08:26:47;;;;;;;3.95;3.13;;;;;;;;;;5052324;28;20104;-59
2021/11/15 08:29:15;;;;;;;6.60;3.47;;;;;;;;;;5051385;28;20024;-58
2021/11/15 08:31:44;;;;;;;5.65;3.85;;;;;;;;;;5052069;28;20025;-59
2021/11/15 08:34:10;;;;;;;5.68;2.97;;;;;;;;;;5051490;28;20021;-58
2021/11/15 08:36:39;;;;;;;4.85;2.90;;;;;;;;;;5052093;28;20037;-58
2021/11/15 08:39:14;;;;;;;5.00;3.30;;;;;;;;;;5051587;28;20029;-59
2021/11/15 08:41:41;;;;;;;10.13;3.50;;;;;;;;;;5052087;28;20112;-59
2021/11/15 08:44:10;;;;;;;5.30;3.42;;;;;;;;;;5051398;28;20025;-59
2021/11/15 08:46:36;;;;;;;6.70;3.58;;;;;;;;;;5052131;28;20032;-58
2021/11/15 08:49:07;;;;;;;5.50;3.35;;;;;;;;;;5051482;28;20559;-67
2021/11/15 08:51:35;;;;;;;5.35;3.35;;;;;;;;;;5051657;28;20025;-59
2021/11/15 08:54:01;;;;;;;5.30;3.33;;;;;;;;;;5052138;28;20025;-58
2021/11/15 08:56:27;;;;;;;6.10;3.65;;;;;;;;;;5055841;28;20447;-59
2021/11/15 08:58:53;;;;;;;4.40;2.90;;;;;;;;;;5055777;28;20029;-59
2021/11/15 09:01:20;;;;;;;6.00;3.25;;;;;;;;;;5055166;28;20060;-59
2021/11/15 09:03:50;;;;;;;6.63;3.38;;;;;;;;;;5055880;28;20071;-58
2021/11/15 09:06:16;;;;;;;4.72;2.88;;;;;;;;;;5055059;28;20103;-58
2021/11/15 09:08:43;;;;;;;6.43;3.10;;;;;;;;;;5055108;28;20025;-58
2021/11/15 09:11:11;;;;;;;4.63;3.08;;;;;;;;;;5054926;28;20021;-58
2021/11/15 09:13:38;;;;;;;4.72;3.03;;;;;;;;;;5055708;28;20028;-59
2021/11/15 09:16:04;;;;;;;4.07;2.85;;;;;;;;;;5055160;28;20021;-69
2021/11/15 09:18:30;;;;;;;6.68;3.22;;;;;;;;;;5055564;28;20100;-59
2021/11/15 09:20:58;;;;;;;6.03;2.85;;;;;;;;;;5054048;28;20024;-59
2021/11/15 09:23:24;;;;;;;4.40;3.20;;;;;;;;;;5054654;28;20274;-59
2021/11/15 09:25:50;;;;;;;4.65;2.67;;;;;;;;;;5055427;28;20029;-59
2021/11/15 09:28:17;;;;;;;3.90;3.00;;;;;;;;;;5054729;28;20025;-59
2021/11/15 09:30:44;;;;;;;4.28;2.90;;;;;;;;;;5055292;28;20499;-59
2021/11/15 09:33:11;;;;;;;4.90;3.25;;;;;;;;;;5054517;28;20025;-59
2021/11/15 09:35:38;;;;;;;4.70;3.38;;;;;;;;;;5055160;28;20057;-59
2021/11/15 09:38:04;;;;;;;5.03;3.40;;;;;;;;;;5055052;28;20086;-64
2021/11/15 09:40:32;;;;;;;3.70;2.83;;;;;;;;;;5055231;28;20040;-59
2021/11/15 09:42:58;;;;;;;4.30;2.65;;;;;;;;;;5055067;28;20013;-59
2021/11/15 09:45:25;;;;;;;6.68;3.60;;;;;;;;;;5054342;28;20221;-58
2021/11/15 09:47:52;;;;;;;5.43;3.38;;;;;;;;;;5055055;28;20363;-58
2021/11/15 09:50:20;;;;;;;3.53;2.47;;;;;;;;;;5054325;28;20021;-59
2021/11/15 09:52:46;;;;;;;5.82;3.17;;;;;;;;;;5054625;28;20524;-58
2021/11/15 09:55:12;;;;;;;4.43;3.30;;;;;;;;;;5054234;28;20025;-60
2021/11/15 09:57:40;;;;;;;4.75;2.90;;;;;;;;;;5054942;28;20052;-57
2021/11/15 10:00:09;;;;;;;6.30;3.70;;;;;;;;;;5054084;28;20424;-59
2021/11/15 10:02:37;;;;;;;4.65;3.17;;;;;;;;;;5054647;28;20074;-59
2021/11/15 10:05:07;;;;;;;6.00;3.22;;;;;;;;;;5054708;28;20021;-59
2021/11/15 10:07:39;;;;;;;8.80;3.72;;;;;;;;;;5054642;28;20131;-59
2021/11/15 10:10:25;;;;;;;4.57;3.10;;;;;;;;;;5054788;28;20365;-58
2021/11/15 10:13:09;;;;;;;7.10;3.20;;;;;;;;;;5054346;28;20055;-60
2021/11/15 10:15:46;;;;;;;3.80;3.03;;;;;;;;;;5054119;28;20036;-58
2021/11/15 10:18:13;;;;;;;4.50;2.97;;;;;;;;;;5053654;28;20025;-59
2021/11/15 10:20:50;;;;;;;4.95;3.00;;;;;;;;;;5054316;28;20033;-59
2021/11/15 10:23:27;;;;;;;5.07;3.15;;;;;;;;;;5053770;28;20032;-59
2021/11/15 10:25:58;;;;;;;4.53;3.10;;;;;;;;;;5054237;28;20014;-59
2021/11/15 10:28:24;;;;;;;4.20;2.42;;;;;;;;;;5053515;28;20025;-60
2021/11/15 10:30:50;;;;;;;4.40;2.88;;;;;;;;;;5054107;28;20061;-59
2021/11/15 10:33:17;;;;;;;3.58;3.03;;;;;;;;;;5053234;28;20394;-59
2021/11/15 10:35:46;;;;;;;5.28;3.10;;;;;;;;;;5054283;28;20049;-59
2021/11/15 10:38:13;;;;;;;6.78;3.75;;;;;;;;;;5053154;28;20072;-59
2021/11/15 10:40:40;;;;;;;5.25;2.97;;;;;;;;;;5053031;28;20508;-59
2021/11/15 10:43:10;;;;;;;5.63;3.10;;;;;;;;;;5053848;28;20374;-59
2021/11/15 10:45:39;;;;;;;5.38;3.53;;;;;;;;;;5054226;28;20071;-59
2021/11/15 10:48:10;;;;;;;4.30;3.30;;;;;;;;;;5054035;28;20032;-59
2021/11/15 10:53:14;;;;;;;4.72;3.30;;;;;;;;;;5053062;28;20037;-60
2021/11/15 10:55:45;;;;;;;4.47;3.35;;;;;;;;;;5053811;28;20017;-59
2021/11/15 10:58:13;;;;;;;3.72;2.65;;;;;;;;;;5053014;28;20053;-59
2021/11/15 11:00:42;;;;;;;4.53;2.90;;;;;;;;;;5053669;28;20371;-59
2021/11/15 11:03:11;;;;;;;4.65;3.38;;;;;;;;;;5052732;28;20554;-64
2021/11/15 11:05:41;;;;;;;6.28;3.58;;;;;;;;;;5053582;28;20029;-59
2021/11/15 11:08:08;;;;;;;4.53;2.80;;;;;;;;;;5053002;28;20063;-69
2021/11/15 11:10:43;;;;;;;6.40;3.95;;;;;;;;;;5053362;28;20021;-59
2021/11/15 11:13:10;;;;;;;3.70;2.92;;;;;;;;;;5052512;28;20450;-60
2021/11/15 11:18:18;;;;;;;6.22;3.65;;;;;;;;;;5052552;28;20037;-59
2021/11/15 11:24:13;;;;;;;4.10;3.10;;;;;;;;;;5052426;28;20532;-59
2021/11/15 11:26:16;;;;;;;4.95;3.42;;;;;;;;;;5049336;28;20029;-59
2021/11/15 11:28:47;;;;;;;3.95;3.00;;;;;;;;;;5053001;28;20033;-59
2021/11/15 11:31:15;;;;;;;4.85;3.38;;;;;;;;;;5052152;28;20027;-59
2021/11/15 11:33:41;;;;;;;4.45;3.13;;;;;;;;;;5052748;28;20363;-59
2021/11/15 11:36:08;;;;;;;6.15;3.38;;;;;;;;;;5053183;28;20049;-59
2021/11/15 11:38:35;;;;;;;4.47;3.35;;;;;;;;;;5052511;28;20474;-59
2021/11/15 11:41:01;;;;;;;4.70;3.20;;;;;;;;;;5052718;28;20033;-60
2021/11/15 11:43:27;;;;;;;4.28;3.47;;;;;;;;;;5052138;28;20100;-59
2021/11/15 11:45:53;;;;;;;4.75;3.65;;;;;;;;;;5052751;28;20025;-59
2021/11/15 11:48:19;;;;;;;4.68;3.10;;;;;;;;;;5052074;28;20032;-60
2021/11/15 11:50:46;;;;;;;3.60;3.13;;;;;;;;;;5052641;28;20021;-59
2021/11/15 11:53:13;;;;;;;4.93;3.67;;;;;;;;;;5052016;28;20024;-59
2021/11/15 11:55:45;;;;;;;3.97;3.05;;;;;;;;;;5052469;28;20028;-58
2021/11/15 11:58:12;;;;;;;;;;;;;;;;;;5052402;28;20028;-59
2021/11/15 12:00:39;;;;;;;4.32;3.35;;;;;;;;;;5052510;28;19916;-59
2021/11/15 12:03:05;;;;;;;5.57;3.50;;;;;;;;;;5052300;28;20052;-59
2021/11/15 12:05:31;;;;;;;4.55;3.42;;;;;;;;;;5051725;28;20029;-59
2021/11/15 12:07:58;;;;;;;4.95;3.58;;;;;;;;;;5052527;28;20021;-59
2021/11/15 12:10:57;;;;;;;5.13;3.42;;;;;;;;;;5051706;28;20401;-59
2021/11/15 12:13:27;;;;;;;4.18;3.17;;;;;;;;;;5028670;28;20162;-59
2021/11/15 12:15:59;;;;;;;4.13;2.85;;;;;;;;;;5052348;28;20095;-59
2021/11/15 12:18:26;;;;;;;5.05;3.50;;;;;;;;;;5051570;28;20087;-59
2021/11/15 12:21:05;;;;;;;4.53;3.38;;;;;;;;;;5052316;28;20032;-59
2021/11/15 12:23:32;;;;;;;6.28;3.63;;;;;;;;;;5051794;28;20029;-59
2021/11/15 12:26:02;;;;;;;7.32;3.65;;;;;;;;;;5052266;28;20029;-59
2021/11/15 12:28:30;;;;;;;5.32;3.35;;;;;;;;;;5051737;28;20029;-60
2021/11/15 12:30:57;;;;;;;5.28;3.60;;;;;;;;;;5055516;28;20079;-60
2021/11/15 12:33:25;;;;;;;4.55;3.25;;;;;;;;;;5055594;28;20025;-61
2021/11/15 12:36:03;;;;;;;5.60;3.70;;;;;;;;;;5056431;28;20049;-59
2021/11/15 12:38:30;;;;;;;4.97;3.72;;;;;;;;;;5055656;28;20025;-59
2021/11/15 12:40:56;;;;;;;6.50;3.72;;;;;;;;;;5056261;28;20040;-59
2021/11/15 12:43:22;;;;;;;5.47;4.15;;;;;;;;;;5055407;28;20025;-60
2021/11/15 12:45:51;;;;;;;5.70;4.63;;;;;;;;;;5056189;28;20025;-59
2021/11/15 12:48:38;;;;;;;5.63;3.78;;;;;;;;;;5055503;28;20075;-60
2021/11/15 12:51:12;;;;;;;4.93;3.80;;;;;;;;;;5056023;28;20033;-60
2021/11/15 12:53:40;;;;;;;5.13;4.13;;;;;;;;;;5056049;28;20025;-60
2021/11/15 12:56:06;;;;;;;4.57;3.63;;;;;;;;;;5055921;28;20028;-60
2021/11/15 12:58:32;;;;;;;3.92;3.05;;;;;;;;;;5055262;28;20025;-59
2021/11/15 13:00:58;;;;;;;5.65;4.20;;;;;;;;;;5055935;28;20052;-59
2021/11/15 13:03:25;;;;;;;6.13;4.30;;;;;;;;;;5054874;28;20446;-60
2021/11/15 13:05:51;;;;;;;5.63;4.00;;;;;;;;;;5055357;28;20497;-60
2021/11/15 13:08:17;;;;;;;6.07;4.03;;;;;;;;;;5055261;28;20025;-60
2021/11/15 13:10:45;;;;;;;4.75;3.63;;;;;;;;;;5055463;28;20029;-59
2021/11/15 13:13:13;;;;;;;5.22;3.80;;;;;;;;;;5055640;28;20032;-59
2021/11/15 13:15:39;;;;;;;4.88;3.40;;;;;;;;;;5055532;28;20052;-59
2021/11/15 13:18:05;;;;;;;5.63;3.70;;;;;;;;;;5055443;28;20025;-59
2021/11/15 13:20:31;;;;;;;5.38;3.83;;;;;;;;;;5054712;28;20029;-59
2021/11/15 13:22:57;;;;;;;4.53;3.63;;;;;;;;;;5055517;28;20409;-59
2021/11/15 13:25:26;;;;;;;6.22;3.75;;;;;;;;;;5054879;28;20047;-59
2021/11/15 13:27:52;;;;;;;5.43;3.70;;;;;;;;;;5055384;28;20017;-59
2021/11/15 13:30:21;;;;;;;4.65;3.63;;;;;;;;;;5054501;28;20099;-59
2021/11/15 13:32:51;;;;;;;5.40;3.38;;;;;;;;;;5055447;28;20021;-59
2021/11/15 13:35:19;;;;;;;5.30;3.92;;;;;;;;;;5052793;28;20394;-59
2021/11/15 13:37:45;;;;;;;4.72;4.05;;;;;;;;;;5055057;28;20037;-59
2021/11/15 13:40:11;;;;;;;4.72;3.72;;;;;;;;;;5054694;28;20033;-59
2021/11/15 13:42:38;;;;;;;5.05;3.60;;;;;;;;;;5054594;28;20096;-59
2021/11/15 13:45:05;;;;;;;5.53;3.80;;;;;;;;;;5055129;28;20104;-59
2021/11/15 13:47:31;;;;;;;5.20;3.92;;;;;;;;;;5054327;28;20473;-60
2021/11/15 13:49:57;;;;;;;5.72;4.03;;;;;;;;;;5054996;28;20033;-59
2021/11/15 13:52:24;;;;;;;4.07;3.30;;;;;;;;;;5054278;28;20102;-59
2021/11/15 13:54:51;;;;;;;5.25;3.97;;;;;;;;;;5055033;28;20359;-59
2021/11/15 13:57:18;;;;;;;5.80;4.65;;;;;;;;;;5054249;28;20105;-59
2021/11/15 13:59:45;;;;;;;5.93;4.13;;;;;;;;;;5054776;28;20057;-59
2021/11/15 14:02:12;;;;;;;5.45;3.90;;;;;;;;;;5054780;28;20412;-59
2021/11/15 14:04:39;;;;;;;4.80;3.70;;;;;;;;;;5054131;28;20446;-59
2021/11/15 14:07:05;;;;;;;6.22;3.97;;;;;;;;;;5054529;28;20041;-59
2021/11/15 14:09:31;;;;;;;5.32;3.90;;;;;;;;;;5054129;28;20473;-64
2021/11/15 14:11:57;;;;;;;5.88;4.38;;;;;;;;;;5054628;28;20107;-59
2021/11/15 14:14:24;;;;;;;5.93;3.92;;;;;;;;;;5053693;28;20104;-59
2021/11/15 14:16:51;;;;;;;6.45;4.78;;;;;;;;;;5054391;28;20025;-59
2021/11/15 14:19:18;;;;;;;5.72;4.00;;;;;;;;;;5053611;28;20104;-57
2021/11/15 14:21:44;;;;;;;5.28;3.85;;;;;;;;;;5054019;28;20020;-58
2021/11/15 14:24:10;;;;;;;5.78;3.90;;;;;;;;;;5054525;28;20470;-57
2021/11/15 14:26:37;;;;;;;6.55;4.50;;;;;;;;;;5053713;28;20025;-57
2021/11/15 14:29:03;;;;;;;6.22;4.65;;;;;;;;;;5053995;28;20470;-58
2021/11/15 14:31:29;;;;;;;5.50;4.00;;;;;;;;;;5053308;28;20029;-58
2021/11/15 14:33:55;;;;;;;5.10;4.18;;;;;;;;;;5053892;28;20158;-58
2021/11/15 14:36:21;;;;;;;5.97;4.65;;;;;;;;;;5052919;28;20143;-58
2021/11/15 14:38:47;;;;;;;8.25;4.88;;;;;;;;;;5054042;28;20096;-58
2021/11/15 14:41:13;;;;;;;5.22;4.40;;;;;;;;;;5053725;28;20485;-58
2021/11/15 14:43:39;;;;;;;5.97;4.15;;;;;;;;;;5053320;28;20025;-58
2021/11/15 14:46:05;;;;;;;6.72;4.22;;;;;;;;;;5053962;28;20029;-58
2021/11/15 14:48:31;;;;;;;4.63;3.72;;;;;;;;;;5053332;28;20044;-58
2021/11/15 14:50:57;;;;;;;6.90;4.45;;;;;;;;;;5053776;28;20031;-58